Time;durP1;ratioP1;P1;durP2;ratioP2;P2;SDS_P1;SDS_P2;PMS_P1;PMS_P2;Temp;Humidity;BMP_temperature;BMP_pressure;BME280_temperature;BME280_humidity;BME280_pressure;Samples;Min_cycle;Max_cycle;Signal;HPM_P1;HPM_P2
2021/11/13 00:02:17;;;;;;;17.00;9.73;;;;;;;12.46;60.91;100961.88;4994986;28;114269;-70
2021/11/13 00:04:44;;;;;;;19.92;10.13;;;;;;;12.47;61.05;100968.91;4993078;28;124117;-70
2021/11/13 00:07:11;;;;;;;19.88;10.75;;;;;;;12.47;61.01;100974.25;4993401;28;123731;-69
2021/11/13 00:09:39;;;;;;;20.80;10.80;;;;;;;12.48;61.09;100967.97;4996623;28;114736;-69
2021/11/13 00:12:06;;;;;;;20.60;10.75;;;;;;;12.48;61.12;100959.16;4998756;28;114295;-69
2021/11/13 00:14:34;;;;;;;20.45;10.18;;;;;;;12.47;61.14;100968.91;5000531;28;124227;-70
2021/11/13 00:17:01;;;;;;;18.63;9.63;;;;;;;12.48;61.21;100961.81;4996816;28;124504;-70
2021/11/13 00:19:30;;;;;;;19.40;10.27;;;;;;;12.48;61.28;100962.66;5000620;28;114205;-69
2021/11/13 00:21:57;;;;;;;19.70;9.77;;;;;;;12.47;61.19;100958.31;5001247;28;113989;-69
2021/11/13 00:24:29;;;;;;;20.92;10.18;;;;;;;12.47;61.26;100958.31;5005043;28;126107;-69
2021/11/13 00:26:57;;;;;;;18.13;9.43;;;;;;;12.49;61.54;100959.06;4995184;28;124793;-69
2021/11/13 00:29:24;;;;;;;19.90;10.07;;;;;;;12.49;61.46;100953.75;4999269;28;115975;-69
2021/11/13 00:31:54;;;;;;;20.73;10.38;;;;;;;12.51;61.60;100946.56;4977376;28;115087;-69
2021/11/13 00:34:23;;;;;;;20.00;9.75;;;;;;;12.52;61.40;100937.66;4991053;28;124357;-69
2021/11/13 00:36:50;;;;;;;22.60;10.73;;;;;;;12.54;61.38;100946.38;4994081;28;123906;-69
2021/11/13 00:39:17;;;;;;;20.67;10.65;;;;;;;12.56;61.54;100933.88;4998799;28;114314;-69
2021/11/13 00:41:45;;;;;;;19.77;10.43;;;;;;;12.57;61.61;100932.97;4993467;28;113971;-69
2021/11/13 00:44:12;;;;;;;17.92;9.80;;;;;;;12.57;61.48;100925.00;4993569;28;124181;-69
2021/11/13 00:46:40;;;;;;;17.92;9.85;;;;;;;12.56;61.49;100923.25;4994672;28;123618;-69
2021/11/13 00:49:08;;;;;;;20.13;10.43;;;;;;;12.56;61.59;100917.94;4996185;28;114882;-69
2021/11/13 00:51:36;;;;;;;20.33;10.45;;;;;;;12.57;61.63;100909.06;5001059;28;113852;-69
2021/11/13 00:54:04;;;;;;;20.40;10.65;;;;;;;12.58;61.77;100910.78;4999934;28;123644;-69
2021/11/13 00:56:32;;;;;;;17.35;10.00;;;;;;;12.60;61.58;100900.03;4993166;28;124844;-70
2021/11/13 00:58:59;;;;;;;20.65;9.88;;;;;;;12.59;61.67;100907.16;4995156;28;115107;-69
2021/11/13 01:01:27;;;;;;;20.58;10.38;;;;;;;12.59;61.59;100907.16;4991865;28;114093;-69
2021/11/13 01:03:55;;;;;;;17.33;9.57;;;;;;;12.59;61.69;100896.53;4984890;28;122923;-70
2021/11/13 01:06:24;;;;;;;19.15;9.98;;;;;;;12.59;61.81;100896.53;5005961;28;123538;-70
2021/11/13 01:08:51;;;;;;;17.65;9.65;;;;;;;12.60;61.88;100903.59;5001872;28;114485;-69
2021/11/13 01:11:18;;;;;;;18.95;9.93;;;;;;;12.60;61.74;100898.28;5000695;28;113007;-70
2021/11/13 01:13:46;;;;;;;20.10;9.73;;;;;;;12.61;61.93;100889.34;4995469;28;123927;-70
2021/11/13 01:16:14;;;;;;;17.13;9.68;;;;;;;12.61;61.87;100894.66;4999597;28;123651;-69
2021/11/13 01:18:43;;;;;;;18.52;10.02;;;;;;;12.62;62.05;100890.19;4999131;28;114867;-69
2021/11/13 01:21:11;;;;;;;20.95;10.05;;;;;;;12.62;61.98;100896.38;5005230;28;114389;-69
2021/11/13 01:23:38;;;;;;;21.38;10.52;;;;;;;12.61;62.30;100884.03;4992653;28;124757;-69
2021/11/13 01:26:07;;;;;;;18.15;9.75;;;;;;;12.63;62.08;100891.94;4994795;28;123766;-70
2021/11/13 01:28:34;;;;;;;20.52;10.07;;;;;;;12.64;62.01;100889.19;4998048;28;114554;-69
2021/11/13 01:31:01;;;;;;;20.13;10.10;;;;;;;12.65;62.21;100880.25;4993671;28;114639;-70
2021/11/13 01:33:28;;;;;;;18.50;9.77;;;;;;;12.66;62.20;100887.31;4993156;28;124295;-70
2021/11/13 01:35:58;;;;;;;19.25;9.85;;;;;;;12.66;62.19;100882.00;4993668;28;123976;-70
2021/11/13 01:38:27;;;;;;;18.80;9.77;;;;;;;12.69;62.28;100882.78;4994968;28;114658;-69
2021/11/13 01:40:55;;;;;;;17.40;10.02;;;;;;;12.71;62.32;100870.25;4994114;28;113675;-70
2021/11/13 01:43:22;;;;;;;15.85;9.18;;;;;;;12.71;62.25;100863.13;4990590;28;124173;-69
2021/11/13 01:45:50;;;;;;;21.95;10.85;;;;;;;12.74;62.52;100862.13;4996946;28;124757;-70
2021/11/13 01:48:17;;;;;;;18.55;9.57;;;;;;;12.75;62.36;100863.84;4982177;28;114987;-70
2021/11/13 01:50:46;;;;;;;18.23;9.82;;;;;;;12.76;62.52;100857.59;4992451;28;114343;-70
2021/11/13 01:53:18;;;;;;;19.55;9.95;;;;;;;12.77;62.38;100856.63;4991315;28;124221;-69
2021/11/13 01:55:46;;;;;;;19.80;10.75;;;;;;;12.79;62.57;100849.44;4994715;28;124353;-69
2021/11/13 01:58:13;;;;;;;19.33;10.18;;;;;;;12.81;62.57;100863.53;4981806;28;118925;-70
2021/11/13 02:00:48;;;;;;;19.10;9.98;;;;;;;12.82;62.71;100859.91;4963354;28;117928;-70
2021/11/13 02:03:16;;;;;;;17.52;9.50;;;;;;;12.82;62.80;100843.97;4993070;28;124479;-69
2021/11/13 02:05:44;;;;;;;17.85;9.68;;;;;;;12.82;62.61;100843.97;4994194;28;123908;-70
2021/11/13 02:08:11;;;;;;;19.70;10.02;;;;;;;12.82;62.73;100844.81;4993201;28;120404;-69
2021/11/13 02:10:40;;;;;;;18.25;9.93;;;;;;;12.85;62.83;100846.47;4993652;28;120172;-70
2021/11/13 02:13:07;;;;;;;18.52;9.05;;;;;;;12.86;62.68;100840.19;4993892;28;123776;-70
2021/11/13 02:15:34;;;;;;;18.63;10.00;;;;;;;12.87;62.84;100841.91;4993232;28;123799;-70
2021/11/13 02:18:02;;;;;;;18.08;9.75;;;;;;;12.87;62.83;100831.28;5000437;28;119032;-69
2021/11/13 02:20:38;;;;;;;18.42;9.68;;;;;;;12.88;62.96;100832.97;4996757;28;118842;-70
2021/11/13 02:23:12;;;;;;;16.23;9.20;;;;;;;12.90;63.04;100831.09;4996693;28;124790;-70
2021/11/13 02:25:40;;;;;;;;;;;;;;;12.89;62.75;100821.44;5000125;28;123925;-70
2021/11/13 02:28:11;;;;;;;16.48;9.68;;;;;;;12.92;62.77;100818.59;4976306;28;119569;-69
2021/11/13 02:30:39;;;;;;;19.73;9.93;;;;;;;12.93;62.94;100820.31;4988879;28;117908;-70
2021/11/13 02:33:08;;;;;;;17.63;9.90;;;;;;;12.94;63.00;100816.72;5001677;28;123930;-70
2021/11/13 02:35:36;;;;;;;20.23;10.82;;;;;;;12.95;62.90;100823.72;4992733;28;123873;-70
2021/11/13 02:38:33;;;;;;;18.65;9.95;;;;;;;12.96;62.80;100814.84;4992286;28;119162;-70
2021/11/13 02:41:05;;;;;;;17.65;9.88;;;;;;;12.98;63.18;100822.72;5001240;28;121038;-70
2021/11/13 02:43:33;;;;;;;19.73;10.30;;;;;;;13.01;63.02;100827.84;4981480;28;123935;-70
2021/11/13 02:46:03;;;;;;;18.10;9.77;;;;;;;13.02;62.97;100819.78;4993443;28;124719;-70
2021/11/13 02:48:36;;;;;;;21.08;9.70;;;;;;;13.07;63.05;100816.03;4988056;28;119513;-70
2021/11/13 02:51:04;;;;;;;19.20;9.75;;;;;;;13.09;63.11;100819.44;4995854;28;118776;-70
2021/11/13 02:53:32;;;;;;;16.67;10.15;;;;;;;13.12;63.14;100821.94;4995695;28;123912;-70
2021/11/13 02:56:02;;;;;;;21.02;9.57;;;;;;;13.12;62.98;100820.13;4996429;28;123952;-70
2021/11/13 02:58:29;;;;;;;19.65;10.30;;;;;;;13.14;63.20;100823.56;4989913;28;120164;-70
2021/11/13 03:01:02;;;;;;;22.75;10.32;;;;;;;13.16;63.29;100820.81;5006194;28;119815;-70
2021/11/13 03:03:30;;;;;;;18.00;9.82;;;;;;;13.18;63.25;100813.63;4995492;28;124280;-70
2021/11/13 03:05:59;;;;;;;20.42;10.30;;;;;;;13.19;63.28;100815.34;4997883;28;123909;-70
2021/11/13 03:08:32;;;;;;;17.88;8.98;;;;;;;13.22;63.26;100816.03;4993527;28;120090;-70
2021/11/13 03:11:01;;;;;;;17.50;9.18;;;;;;;13.23;63.16;100812.41;4998168;28;119753;-70
2021/11/13 03:13:30;;;;;;;16.20;9.48;;;;;;;13.24;63.30;100819.47;4996480;28;123837;-70
2021/11/13 03:16:01;;;;;;;16.80;9.45;;;;;;;13.27;63.19;100812.25;5000518;28;124140;-70
2021/11/13 03:18:29;;;;;;;17.65;9.30;;;;;;;13.27;63.43;100812.25;4994388;28;119574;-70
2021/11/13 03:20:57;;;;;;;21.23;10.23;;;;;;;13.29;63.35;100816.53;4992607;28;119541;-70
2021/11/13 03:23:25;;;;;;;17.30;9.77;;;;;;;13.31;63.39;100814.66;4993857;28;123903;-70
2021/11/13 03:25:58;;;;;;;21.42;9.80;;;;;;;13.32;63.43;100816.41;4991481;28;122958;-70
2021/11/13 03:28:29;;;;;;;17.58;9.27;;;;;;;13.33;63.31;100812.78;4991537;28;119326;-70
2021/11/13 03:31:01;;;;;;;20.88;9.98;;;;;;;13.35;63.28;100818.84;4976937;28;117983;-70
2021/11/13 03:33:30;;;;;;;18.67;8.88;;;;;;;13.36;63.33;100815.28;4993857;28;124043;-70
2021/11/13 03:35:59;;;;;;;16.13;9.57;;;;;;;13.38;63.36;100815.19;4985840;28;123681;-70
2021/11/13 03:38:26;;;;;;;16.40;9.00;;;;;;;13.40;63.45;100814.13;4995966;28;120100;-70
2021/11/13 03:40:53;;;;;;;15.55;9.07;;;;;;;13.40;63.46;100813.28;4996453;28;118285;-70
2021/11/13 03:43:22;;;;;;;16.60;9.02;;;;;;;13.41;63.37;100815.00;4988309;28;124218;-70
2021/11/13 03:45:51;;;;;;;17.25;8.85;;;;;;;13.42;63.50;100806.06;4989674;28;124101;-70
2021/11/13 03:48:19;;;;;;;15.43;8.75;;;;;;;13.43;63.21;100813.97;4992688;28;120124;-69
2021/11/13 03:50:47;;;;;;;12.63;8.23;;;;;;;13.46;63.31;100812.09;4991072;28;120765;-70
2021/11/13 03:53:15;;;;;;;15.73;8.43;;;;;;;13.46;63.33;100820.91;4998518;28;124747;-70
2021/11/13 03:55:42;;;;;;;13.27;7.97;;;;;;;13.47;63.41;100813.78;4978181;28;123394;-70
2021/11/13 03:58:12;;;;;;;12.50;7.57;;;;;;;13.48;63.24;100812.84;4992231;28;119546;-70
2021/11/13 04:00:40;;;;;;;16.98;8.32;;;;;;;13.46;63.47;100812.09;4989503;28;118917;-70
2021/11/13 04:03:07;;;;;;;13.90;7.82;;;;;;;13.46;63.46;100812.09;4995218;28;124819;-71
2021/11/13 04:05:35;;;;;;;13.77;7.22;;;;;;;13.45;63.35;100808.56;4991946;28;124221;-70
2021/11/13 04:08:03;;;;;;;13.18;7.35;;;;;;;13.44;63.44;100802.38;4993511;28;119096;-70
2021/11/13 04:10:32;;;;;;;12.73;6.68;;;;;;;13.46;63.56;100802.28;4993222;28;119930;-70
2021/11/13 04:12:59;;;;;;;14.10;7.85;;;;;;;13.48;63.54;100804.88;4994376;28;124093;-70
2021/11/13 04:15:27;;;;;;;12.30;7.18;;;;;;;13.47;63.61;100803.13;4994901;28;123865;-70
2021/11/13 04:17:54;;;;;;;11.45;6.68;;;;;;;13.50;63.46;100808.28;4989235;28;119979;-70
2021/11/13 04:20:21;;;;;;;11.82;6.55;;;;;;;13.49;63.50;100802.13;5002436;28;119230;-70
2021/11/13 04:22:50;;;;;;;11.48;6.63;;;;;;;13.49;63.50;100806.59;4991992;28;124343;-70
2021/11/13 04:25:18;;;;;;;12.57;7.53;;;;;;;13.50;63.61;100818.94;4974502;28;124023;-69
2021/11/13 04:27:50;;;;;;;12.93;7.10;;;;;;;13.50;63.60;100813.63;4993009;28;119572;-70
2021/11/13 04:30:17;;;;;;;11.18;7.10;;;;;;;13.50;63.66;100808.28;5000305;28;118761;-70
2021/11/13 04:32:48;;;;;;;11.60;7.38;;;;;;;13.50;63.64;100808.28;4991197;28;123887;-70
2021/11/13 04:35:19;;;;;;;12.32;7.03;;;;;;;13.52;63.65;100806.41;4987879;28;123821;-70
2021/11/13 04:37:57;;;;;;;9.65;6.47;;;;;;;13.53;63.58;100810.78;4991469;28;119762;-70
2021/11/13 04:40:28;;;;;;;10.90;6.50;;;;;;;13.53;63.69;100805.47;4992246;28;120511;-70
2021/11/13 04:42:56;;;;;;;12.68;6.43;;;;;;;13.55;63.52;100814.22;4996003;28;124394;-70
2021/11/13 04:45:23;;;;;;;10.65;6.45;;;;;;;13.56;63.66;100813.25;4990177;28;123597;-70
2021/11/13 04:47:51;;;;;;;11.57;6.40;;;;;;;13.55;63.60;100817.72;4992242;28;119650;-70
2021/11/13 04:50:22;;;;;;;11.65;6.45;;;;;;;13.55;63.80;100816.88;4990793;28;119062;-70
2021/11/13 04:52:49;;;;;;;12.18;6.72;;;;;;;13.57;63.84;100822.97;4992970;28;123862;-70
2021/11/13 04:55:17;;;;;;;10.88;6.97;;;;;;;13.57;63.79;100825.63;5003467;28;123632;-70
2021/11/13 04:57:46;;;;;;;10.23;7.00;;;;;;;13.58;63.78;100827.31;4993339;28;119437;-70
2021/11/13 05:00:20;;;;;;;10.43;7.30;;;;;;;13.59;63.75;100818.41;4987817;28;118132;-70
2021/11/13 05:02:48;;;;;;;10.40;6.82;;;;;;;13.60;63.62;100825.47;4996801;28;124059;-70
2021/11/13 05:05:16;;;;;;;12.35;7.00;;;;;;;13.60;63.72;100830.78;4993113;28;124521;-70
2021/11/13 05:07:44;;;;;;;13.68;7.63;;;;;;;13.60;63.85;100823.66;4969218;28;118255;-70
2021/11/13 05:10:13;;;;;;;11.70;7.20;;;;;;;13.62;63.87;100828.88;4995534;28;118772;-70
2021/11/13 05:12:41;;;;;;;11.90;7.30;;;;;;;13.64;63.89;100832.31;4995589;28;123935;-70
2021/11/13 05:15:10;;;;;;;11.60;7.40;;;;;;;13.66;63.86;100830.41;4992839;28;123803;-70
2021/11/13 05:17:38;;;;;;;11.38;7.18;;;;;;;13.66;63.86;100835.75;4989452;28;119845;-70
2021/11/13 05:20:09;;;;;;;11.23;7.00;;;;;;;13.67;63.82;100834.78;4995395;28;119295;-71
2021/11/13 05:22:38;;;;;;;11.90;7.38;;;;;;;13.70;63.82;100841.75;4992495;28;123937;-70
2021/11/13 05:25:08;;;;;;;11.80;7.18;;;;;;;13.70;63.85;100834.59;4998320;28;124357;-70
2021/11/13 05:27:36;;;;;;;13.35;7.63;;;;;;;13.70;63.85;100837.28;4988025;28;120049;-70
2021/11/13 05:30:05;;;;;;;13.00;7.30;;;;;;;13.72;63.95;100835.38;4993736;28;119772;-70
2021/11/13 05:32:32;;;;;;;11.38;7.20;;;;;;;13.74;63.67;100832.63;4997109;28;124965;-70
2021/11/13 05:34:59;;;;;;;13.18;7.25;;;;;;;13.74;63.90;100841.47;4995641;28;124167;-70
2021/11/13 05:37:27;;;;;;;13.50;8.20;;;;;;;13.75;63.99;100837.88;4988334;28;119134;-70
2021/11/13 05:39:54;;;;;;;12.38;7.50;;;;;;;13.77;63.86;100838.63;4990078;28;118051;-70
2021/11/13 05:42:21;;;;;;;13.43;7.90;;;;;;;13.76;63.84;100836.91;5002776;28;123843;-70
2021/11/13 05:44:48;;;;;;;13.73;7.78;;;;;;;13.77;63.90;100843.97;4995294;28;123830;-70
2021/11/13 05:47:15;;;;;;;13.57;7.90;;;;;;;13.78;63.81;100848.31;4992371;28;119939;-70
2021/11/13 05:49:42;;;;;;;11.82;7.30;;;;;;;13.79;64.11;100851.84;4981828;28;119179;-70
2021/11/13 05:52:10;;;;;;;12.50;7.38;;;;;;;13.80;63.91;100854.41;5001686;28;124203;-71
2021/11/13 05:54:38;;;;;;;12.02;7.78;;;;;;;13.79;63.80;100852.72;4988674;28;124508;-70
2021/11/13 05:57:06;;;;;;;11.57;7.55;;;;;;;13.79;63.96;100858.03;4994541;28;119962;-70
2021/11/13 05:59:53;;;;;;;12.73;7.97;;;;;;;13.80;63.84;100854.41;4991904;28;119176;-71
2021/11/13 06:02:21;;;;;;;13.25;7.57;;;;;;;13.80;63.94;100859.72;4994228;28;124052;-71
2021/11/13 06:04:49;;;;;;;11.88;7.55;;;;;;;13.81;64.03;100861.47;4958271;28;122728;-72
2021/11/13 06:07:17;;;;;;;11.27;7.60;;;;;;;13.81;63.98;100858.78;4997295;28;119127;-73
2021/11/13 06:09:44;;;;;;;11.88;7.50;;;;;;;13.82;64.01;100864.97;4996705;28;119620;-73
2021/11/13 06:12:11;;;;;;;12.95;7.25;;;;;;;13.83;64.00;100864.88;4996859;28;124338;-73
2021/11/13 06:14:39;;;;;;;10.02;6.97;;;;;;;13.85;64.01;100866.63;4995347;28;124727;-75
2021/11/13 06:17:07;;;;;;;12.55;7.72;;;;;;;13.82;64.00;100857.88;4999203;28;121224;-74
2021/11/13 06:19:34;;;;;;;12.00;7.93;;;;;;;13.85;64.00;100853.31;4991868;28;119994;-74
2021/11/13 06:22:02;;;;;;;12.50;7.70;;;;;;;13.85;64.06;100866.63;4996733;28;123794;-74
2021/11/13 06:24:31;;;;;;;11.65;7.57;;;;;;;13.84;64.12;100852.44;4998588;28;124167;-75
2021/11/13 06:26:58;;;;;;;14.32;7.70;;;;;;;13.85;64.10;100861.28;4994832;28;119738;-73
2021/11/13 06:29:26;;;;;;;11.80;7.45;;;;;;;13.87;63.98;100870.91;4988219;28;119099;-73
2021/11/13 06:31:56;;;;;;;12.30;7.20;;;;;;;13.88;64.04;100861.09;4973038;28;123913;-73
2021/11/13 06:34:24;;;;;;;12.88;7.95;;;;;;;13.89;64.34;100873.47;4988893;28;123467;-73
2021/11/13 06:36:51;;;;;;;10.77;7.15;;;;;;;13.89;64.12;100876.97;4991325;28;119195;-73
2021/11/13 06:39:19;;;;;;;11.70;7.43;;;;;;;13.89;63.98;100873.47;4993826;28;119231;-73
2021/11/13 06:41:46;;;;;;;10.80;6.80;;;;;;;13.90;64.05;100885.81;4974031;28;123840;-73
2021/11/13 06:44:13;;;;;;;11.00;7.00;;;;;;;13.90;64.09;100888.47;4985593;28;123949;-73
2021/11/13 06:46:40;;;;;;;13.07;7.65;;;;;;;13.90;64.00;100896.47;4998792;28;119243;-73
2021/11/13 06:49:07;;;;;;;11.85;7.35;;;;;;;13.90;63.92;100899.13;5006103;28;118775;-73
2021/11/13 06:51:39;;;;;;;9.40;6.68;;;;;;;13.91;64.07;100898.19;5004455;28;124474;-74
2021/11/13 06:54:06;;;;;;;11.88;7.05;;;;;;;13.91;64.06;100898.19;5002806;28;124502;-73
2021/11/13 06:56:33;;;;;;;11.88;6.63;;;;;;;13.91;64.16;100887.56;5003113;28;119874;-73
2021/11/13 06:59:00;;;;;;;9.32;6.60;;;;;;;13.91;64.04;100887.56;5006511;28;119286;-73
2021/11/13 07:01:28;;;;;;;11.48;7.28;;;;;;;13.92;64.10;100899.91;4984307;28;124808;-72
2021/11/13 07:03:58;;;;;;;11.15;6.50;;;;;;;13.91;64.04;100903.53;5004896;28;123853;-73
2021/11/13 07:06:26;;;;;;;11.75;6.82;;;;;;;13.91;64.28;100908.84;5003808;28;120897;-73
2021/11/13 07:08:53;;;;;;;10.82;6.80;;;;;;;13.91;64.14;100909.69;5004397;28;120760;-72
2021/11/13 07:11:20;;;;;;;10.68;7.43;;;;;;;13.91;64.29;100911.50;5004836;28;124454;-73
2021/11/13 07:13:47;;;;;;;10.65;7.07;;;;;;;13.92;64.22;100910.53;5004684;28;123783;-73
2021/11/13 07:16:14;;;;;;;14.10;7.40;;;;;;;13.92;64.21;100915.88;4980977;28;118794;-73
2021/11/13 07:18:43;;;;;;;10.02;6.28;;;;;;;13.93;64.29;100917.59;5005491;28;119015;-73
2021/11/13 07:21:10;;;;;;;8.48;5.70;;;;;;;13.94;64.25;100919.34;5005502;28;124147;-73
2021/11/13 07:23:38;;;;;;;10.07;6.85;;;;;;;13.94;64.30;100930.00;4996352;28;124144;-72
2021/11/13 07:26:07;;;;;;;9.93;6.63;;;;;;;13.93;64.26;100917.59;4995929;28;119322;-73
2021/11/13 07:28:40;;;;;;;10.25;6.38;;;;;;;13.94;64.30;100927.31;4976985;28;118279;-73
2021/11/13 07:31:15;;;;;;;10.40;6.38;;;;;;;13.94;64.33;100930.00;4987375;28;124535;-73
2021/11/13 07:33:45;;;;;;;10.27;6.13;;;;;;;13.94;64.19;100930.00;4986971;28;124227;-73
2021/11/13 07:36:12;;;;;;;10.82;6.32;;;;;;;13.95;64.25;100934.34;4994310;28;119280;-73
2021/11/13 07:38:39;;;;;;;9.75;6.43;;;;;;;13.97;64.30;100940.44;4974596;28;120304;-73
2021/11/13 07:41:07;;;;;;;10.07;6.43;;;;;;;13.98;64.26;100942.16;4994106;28;124090;-72
2021/11/13 07:43:35;;;;;;;9.70;6.40;;;;;;;13.99;64.35;100936.75;5000381;28;124601;-72
2021/11/13 07:46:02;;;;;;;9.77;6.60;;;;;;;14.00;64.41;100945.59;4991285;28;119958;-73
2021/11/13 07:48:30;;;;;;;11.02;6.82;;;;;;;14.01;64.26;100947.28;4996799;28;119497;-74
2021/11/13 07:50:57;;;;;;;9.52;6.82;;;;;;;14.01;64.30;100957.94;4978223;28;123967;-73
2021/11/13 07:53:24;;;;;;;10.38;6.82;;;;;;;14.03;64.36;100956.06;4996818;28;123952;-73
2021/11/13 07:55:53;;;;;;;9.32;6.28;;;;;;;14.05;64.40;100964.81;5009732;28;120134;-73
2021/11/13 07:58:21;;;;;;;9.95;6.97;;;;;;;14.05;64.38;100964.81;5010746;28;119593;-73
2021/11/13 08:00:49;;;;;;;10.60;7.10;;;;;;;14.06;64.37;100966.53;5005362;28;125490;-73
2021/11/13 08:03:18;;;;;;;12.52;6.45;;;;;;;14.08;64.51;100964.66;5006367;28;124026;-73
2021/11/13 08:05:45;;;;;;;10.50;7.03;;;;;;;14.10;64.54;100968.06;5004472;28;119623;-73
2021/11/13 08:08:14;;;;;;;11.38;7.03;;;;;;;14.10;64.57;100968.06;4986888;28;118861;-73
2021/11/13 08:10:41;;;;;;;10.30;7.35;;;;;;;14.12;64.54;100971.50;4985905;28;123058;-72
2021/11/13 08:13:14;;;;;;;11.80;7.35;;;;;;;14.15;64.60;100976.66;4996950;28;123884;-73
2021/11/13 08:15:48;;;;;;;12.18;7.60;;;;;;;14.16;64.60;100975.69;4992567;28;119384;-72
2021/11/13 08:18:17;;;;;;;11.55;7.63;;;;;;;14.20;64.56;100977.25;4993424;28;118989;-72
2021/11/13 08:20:45;;;;;;;10.40;7.50;;;;;;;14.22;64.57;100971.81;4995622;28;124252;-72
2021/11/13 08:23:13;;;;;;;13.05;7.93;;;;;;;14.25;64.24;100971.66;4999000;28;124296;-72
2021/11/13 08:25:43;;;;;;;12.30;7.78;;;;;;;14.27;64.58;100974.25;4992760;28;120079;-73
2021/11/13 08:28:12;;;;;;;14.75;7.85;;;;;;;14.29;64.46;100980.34;5003596;28;119027;-72
2021/11/13 08:30:43;;;;;;;12.05;8.18;;;;;;;14.32;64.65;100982.81;4996448;28;124212;-72
2021/11/13 08:33:11;;;;;;;11.80;7.57;;;;;;;14.36;64.60;100984.34;4973206;28;123105;-72
2021/11/13 08:35:42;;;;;;;11.80;7.47;;;;;;;14.38;64.48;100987.78;4982276;28;119045;-72
2021/11/13 08:38:15;;;;;;;11.15;7.68;;;;;;;14.40;64.59;100988.56;4997344;28;119249;-73
2021/11/13 08:40:50;;;;;;;13.43;8.02;;;;;;;14.41;64.61;100987.63;5000979;28;124582;-72
2021/11/13 08:43:19;;;;;;;12.52;7.40;;;;;;;14.44;64.53;100990.09;4996570;28;124813;-73
2021/11/13 08:45:47;;;;;;;13.35;8.27;;;;;;;14.47;64.60;100997.91;4997768;28;120550;-73
2021/11/13 08:48:15;;;;;;;11.75;8.02;;;;;;;14.50;64.57;100991.53;5007798;28;120644;-73
2021/11/13 08:50:43;;;;;;;12.48;8.02;;;;;;;14.53;64.51;100992.22;4992882;28;122982;-73
2021/11/13 08:53:11;;;;;;;12.18;8.07;;;;;;;14.55;64.50;100990.31;5012134;28;125892;-73
2021/11/13 08:55:41;;;;;;;11.35;8.15;;;;;;;14.58;64.56;100989.31;5004379;28;118804;-73
2021/11/13 08:58:08;;;;;;;12.85;8.98;;;;;;;14.60;64.60;100982.94;5005353;28;118932;-73
2021/11/13 09:00:46;;;;;;;13.25;8.65;;;;;;;14.65;64.56;100979.97;4978619;28;125470;-73
2021/11/13 09:03:35;;;;;;;14.57;8.90;;;;;;;14.67;64.51;100979.91;5032076;22;123496;-64
2021/11/13 09:06:08;;;;;;;13.68;8.82;;;;;;;14.70;64.62;100982.38;5029647;27;119372;-64
2021/11/13 09:08:37;;;;;;;14.05;9.00;;;;;;;14.73;64.45;100987.50;5027080;27;118950;-66
2021/11/13 09:11:06;;;;;;;13.50;9.15;;;;;;;14.75;64.57;100985.66;5010237;27;123928;-65
2021/11/13 09:13:34;;;;;;;15.23;9.48;;;;;;;14.78;64.55;100985.44;5023993;27;123910;-65
2021/11/13 09:16:04;;;;;;;16.30;9.95;;;;;;;14.80;64.53;100983.53;5021946;27;118245;-66
2021/11/13 09:18:32;;;;;;;16.17;9.77;;;;;;;14.84;64.68;100990.38;5025541;27;118912;-63
2021/11/13 09:21:00;;;;;;;16.08;9.60;;;;;;;14.88;64.72;100985.72;5018543;28;123999;-63
2021/11/13 09:23:27;;;;;;;16.70;9.73;;;;;;;14.91;64.76;100997.06;5018446;27;122810;-66
2021/11/13 09:25:54;;;;;;;19.70;9.55;;;;;;;14.94;64.73;101002.22;5016393;27;119293;-63
2021/11/13 09:28:21;;;;;;;19.00;10.73;;;;;;;14.95;64.70;100998.59;5035855;27;119076;-64
2021/11/13 09:30:49;;;;;;;15.40;9.80;;;;;;;15.01;64.60;101001.84;5024154;27;123860;-66
2021/11/13 09:33:16;;;;;;;16.65;9.98;;;;;;;15.04;64.75;101007.00;5016129;27;123835;-66
2021/11/13 09:35:44;;;;;;;16.70;10.07;;;;;;;15.08;65.16;101008.53;5024404;27;121531;-63
2021/11/13 09:38:26;;;;;;;17.17;10.05;;;;;;;15.11;64.77;101008.34;5013023;27;120359;-66
2021/11/13 09:40:55;;;;;;;21.02;10.38;;;;;;;15.15;64.29;101015.22;5024248;27;124117;-64
2021/11/13 09:43:24;;;;;;;15.25;9.82;;;;;;;15.16;64.93;101016.91;5020950;27;124549;-63
2021/11/13 09:45:54;;;;;;;16.88;9.88;;;;;;;15.18;64.64;101020.34;5011215;27;118704;-64
2021/11/13 09:48:22;;;;;;;15.93;9.77;;;;;;;15.21;64.59;101009.50;5016448;27;121025;-64
2021/11/13 09:50:50;;;;;;;15.93;9.48;;;;;;;15.22;64.57;101016.56;5026199;28;124754;-64
2021/11/13 09:53:20;;;;;;;14.15;9.15;;;;;;;15.24;64.62;101025.31;5013967;27;122994;-64
2021/11/13 09:55:48;;;;;;;18.25;9.48;;;;;;;15.27;64.68;101021.59;5013649;28;118375;-64
2021/11/13 09:58:16;;;;;;;16.55;9.73;;;;;;;15.27;64.79;101027.78;5018874;27;118700;-64
2021/11/13 10:00:44;;;;;;;15.02;8.93;;;;;;;15.28;64.62;101020.66;5013821;28;124651;-64
2021/11/13 10:03:19;;;;;;;15.98;9.10;;;;;;;15.30;64.62;101029.41;5030060;27;123600;-64
2021/11/13 10:05:52;;;;;;;16.70;9.70;;;;;;;15.32;64.84;101023.03;5022564;27;119117;-65
2021/11/13 10:08:23;;;;;;;16.73;9.52;;;;;;;15.35;64.69;101038.84;5016451;27;118943;-64
2021/11/13 10:11:04;;;;;;;15.07;9.48;;;;;;;15.38;64.78;101027.97;5028435;27;123308;-64
2021/11/13 10:13:43;;;;;;;15.85;9.27;;;;;;;15.42;64.79;101033.13;5023481;27;122711;-65
2021/11/13 10:16:14;;;;;;;15.30;8.57;;;;;;;15.44;64.71;101037.41;5028933;27;119397;-64
2021/11/13 10:18:48;;;;;;;16.92;9.80;;;;;;;15.45;64.69;101040.97;5025930;27;119631;-65
2021/11/13 10:21:19;;;;;;;17.88;9.55;;;;;;;15.47;64.78;101031.03;5018800;27;123324;-65
2021/11/13 10:23:57;;;;;;;15.52;9.38;;;;;;;15.52;64.86;101047.59;5026605;28;124686;-64
2021/11/13 10:26:29;;;;;;;17.42;8.93;;;;;;;15.54;64.78;101037.72;5027554;27;120040;-64
2021/11/13 10:29:09;;;;;;;16.27;8.88;;;;;;;15.57;64.48;101042.84;5028306;27;120350;-64
2021/11/13 10:31:39;;;;;;;14.30;9.50;;;;;;;15.57;64.67;101037.50;5017771;27;124315;-64
2021/11/13 10:34:13;;;;;;;15.25;8.93;;;;;;;15.59;64.69;101046.28;5019346;27;123848;-64
2021/11/13 10:36:53;;;;;;;19.90;9.73;;;;;;;15.61;64.66;101049.69;5029817;27;120090;-64
2021/11/13 10:39:24;;;;;;;16.30;9.35;;;;;;;15.65;64.72;101045.91;5019214;27;119175;-65
2021/11/13 10:41:58;;;;;;;14.68;9.38;;;;;;;15.67;64.67;101041.31;5019023;28;123953;-64
2021/11/13 10:44:28;;;;;;;18.48;10.07;;;;;;;15.72;64.68;101047.22;5028266;27;123901;-64
2021/11/13 10:46:59;;;;;;;16.00;10.02;;;;;;;15.75;64.63;101057.75;5028857;28;119156;-64
2021/11/13 10:49:26;;;;;;;17.17;9.68;;;;;;;15.79;64.60;101046.88;5028175;27;119068;-64
2021/11/13 10:51:59;;;;;;;20.05;10.70;;;;;;;15.81;64.52;101044.97;5014590;27;124240;-65
2021/11/13 10:54:29;;;;;;;18.13;11.10;;;;;;;15.84;64.70;101050.97;5027571;28;124238;-65
2021/11/13 10:57:03;;;;;;;21.02;11.38;;;;;;;15.89;64.46;101047.97;5020669;27;119400;-66
2021/11/13 10:59:33;;;;;;;19.80;11.73;;;;;;;15.92;64.52;101042.47;5010957;27;118980;-65
2021/11/13 11:02:04;;;;;;;20.75;11.98;;;;;;;15.95;64.73;101043.13;5025616;27;124100;-65
2021/11/13 11:04:35;;;;;;;19.17;10.60;;;;;;;16.02;64.75;101046.25;5013400;27;123454;-65
2021/11/13 11:07:15;;;;;;;19.05;9.73;;;;;;;16.08;64.65;101048.50;5023024;27;118170;-65
2021/11/13 11:10:08;;;;;;;18.63;9.73;;;;;;;16.12;64.63;101039.34;5023077;28;119384;-65
2021/11/13 11:12:45;;;;;;;15.30;9.20;;;;;;;16.19;64.79;101044.28;5017928;28;124617;-65
2021/11/13 11:15:14;;;;;;;15.43;9.32;;;;;;;16.25;64.68;101038.53;5015986;27;124096;-65
2021/11/13 11:17:42;;;;;;;15.70;9.02;;;;;;;16.28;64.37;101043.69;5017525;28;120451;-65
2021/11/13 11:20:16;;;;;;;15.50;9.18;;;;;;;16.32;64.49;101039.84;5025674;28;120048;-65